createdAt,value
2023-02-11T00:01:35.013Z,0.05
2023-02-11T00:04:02.505Z,0.08
2023-02-11T00:06:30.658Z,0.07
2023-02-11T00:08:57.664Z,0.09
2023-02-11T00:11:26.537Z,0.15
2023-02-11T00:13:53.139Z,0.11
2023-02-11T00:16:21.253Z,0.09
2023-02-11T00:18:48.705Z,0.11
2023-02-11T00:21:17.722Z,0.18
2023-02-11T00:23:45.686Z,0.19
2023-02-11T00:26:17.882Z,0.24
2023-02-11T00:28:46.266Z,0.28
2023-02-11T00:31:14.047Z,0.35
2023-02-11T00:33:41.337Z,0.44
2023-02-11T00:36:11.729Z,0.49
2023-02-11T00:38:38.413Z,0.49
2023-02-11T00:41:06.069Z,0.46
2023-02-11T00:43:32.638Z,0.53
2023-02-11T00:45:59.787Z,0.54
2023-02-11T00:48:26.535Z,0.52
2023-02-11T00:50:53.234Z,0.48
2023-02-11T00:53:19.848Z,0.51
2023-02-11T00:55:46.433Z,0.54
2023-02-11T00:58:13.017Z,0.59
2023-02-11T01:00:39.575Z,0.66
2023-02-11T01:03:06.609Z,0.70
2023-02-11T01:05:33.500Z,0.67
2023-02-11T01:08:00.170Z,0.67
2023-02-11T01:10:27.060Z,0.72
2023-02-11T01:12:53.650Z,0.74
2023-02-11T01:15:21.466Z,0.74
2023-02-11T01:17:48.364Z,0.75
2023-02-11T01:20:21.932Z,0.78
2023-02-11T01:22:48.694Z,0.75
2023-02-11T01:25:15.851Z,0.77
2023-02-11T01:27:42.798Z,0.78
2023-02-11T01:30:12.085Z,0.81
2023-02-11T01:32:39.694Z,0.83
2023-02-11T01:35:07.092Z,0.84
2023-02-11T01:37:36.172Z,0.92
2023-02-11T01:40:06.017Z,0.98
2023-02-11T01:42:34.670Z,1.02
2023-02-11T01:45:21.686Z,1.04
2023-02-11T01:47:48.273Z,1.02
2023-02-11T01:50:14.905Z,1.04
2023-02-11T01:52:42.612Z,1.10
2023-02-11T01:55:31.272Z,1.18
2023-02-11T01:58:03.127Z,1.20
2023-02-11T02:00:38.894Z,1.20
2023-02-11T02:03:15.317Z,1.26
2023-02-11T02:05:57.064Z,1.27
2023-02-11T02:08:35.781Z,1.35
2023-02-11T02:11:03.582Z,1.45
2023-02-11T02:13:33.916Z,1.49
2023-02-11T02:16:09.518Z,1.54
2023-02-11T02:18:39.330Z,1.56
2023-02-11T02:21:43.244Z,1.68
2023-02-11T02:24:38.294Z,1.70
2023-02-11T02:27:13.861Z,1.74
2023-02-11T02:30:18.256Z,1.75
2023-02-11T02:33:16.746Z,1.75
2023-02-11T02:35:48.636Z,1.85
2023-02-11T02:38:33.487Z,1.82
2023-02-11T02:41:16.020Z,1.86
2023-02-11T02:43:49.645Z,1.88
2023-02-11T02:46:22.414Z,1.91
2023-02-11T02:48:52.571Z,1.89
2023-02-11T02:51:53.084Z,1.91
2023-02-11T02:54:41.365Z,1.94
2023-02-11T02:57:19.986Z,1.95
2023-02-11T03:00:13.125Z,1.95
2023-02-11T03:02:42.428Z,2.02
2023-02-11T03:05:18.650Z,2.07
2023-02-11T03:07:55.161Z,2.09
2023-02-11T03:10:28.786Z,2.13
2023-02-11T03:12:56.927Z,2.15
2023-02-11T03:15:28.212Z,2.14
2023-02-11T03:17:59.233Z,2.21
2023-02-11T03:20:28.670Z,2.22
2023-02-11T03:23:02.243Z,2.20
2023-02-11T03:25:34.732Z,2.22
2023-02-11T03:28:14.121Z,2.26
2023-02-11T03:30:53.439Z,2.25
2023-02-11T03:33:28.216Z,2.24
2023-02-11T03:35:59.967Z,2.25
2023-02-11T03:38:32.466Z,2.21
2023-02-11T03:41:01.847Z,2.21
2023-02-11T03:43:34.584Z,2.17
2023-02-11T03:46:03.550Z,2.15
2023-02-11T03:48:34.879Z,2.13
2023-02-11T03:51:05.377Z,2.09
2023-02-11T03:53:31.987Z,2.11
2023-02-11T03:56:02.997Z,2.10
2023-02-11T03:58:30.192Z,2.15
2023-02-11T04:00:56.895Z,2.16
2023-02-11T04:03:23.539Z,2.16
2023-02-11T04:05:50.436Z,2.16
2023-02-11T04:08:17.214Z,2.14
2023-02-11T04:10:43.837Z,2.15
2023-02-11T04:13:10.426Z,2.17
2023-02-11T04:15:37.252Z,2.21
2023-02-11T04:18:04.209Z,2.27
2023-02-11T04:20:31.015Z,2.28
2023-02-11T04:22:57.631Z,2.27
2023-02-11T04:25:24.296Z,2.27
2023-02-11T04:27:50.890Z,2.24
2023-02-11T04:30:17.630Z,2.21
2023-02-11T04:32:44.260Z,2.24
2023-02-11T04:35:10.848Z,2.26
2023-02-11T04:37:37.523Z,2.24
2023-02-11T04:40:04.609Z,2.26
2023-02-11T04:42:31.311Z,2.26
2023-02-11T04:44:57.912Z,2.28
2023-02-11T04:47:24.490Z,2.31
2023-02-11T04:49:51.049Z,2.32
2023-02-11T04:52:17.662Z,2.30
2023-02-11T04:54:44.384Z,2.32
2023-02-11T04:57:10.971Z,2.32
2023-02-11T04:59:37.676Z,2.31
2023-02-11T05:02:04.377Z,2.34
2023-02-11T05:04:31.197Z,2.32
2023-02-11T05:06:58.780Z,2.29
2023-02-11T05:09:25.430Z,2.26
2023-02-11T05:11:52.349Z,2.23
2023-02-11T05:14:19.394Z,2.24
2023-02-11T05:16:46.036Z,2.27
2023-02-11T05:19:12.684Z,2.23
2023-02-11T05:21:40.099Z,2.22
2023-02-11T05:24:09.090Z,2.24
2023-02-11T05:26:35.689Z,2.24
2023-02-11T05:29:02.392Z,2.25
2023-02-11T05:31:29.058Z,2.23
2023-02-11T05:33:55.652Z,2.23
2023-02-11T05:36:22.275Z,2.23
2023-02-11T05:38:49.042Z,2.27
2023-02-11T05:41:15.670Z,2.26
2023-02-11T05:43:42.316Z,2.24
2023-02-11T05:46:09.103Z,2.23
2023-02-11T05:48:35.730Z,2.26
2023-02-11T05:51:02.566Z,2.25
2023-02-11T05:53:29.164Z,2.27
2023-02-11T05:55:55.771Z,2.24
2023-02-11T05:58:22.368Z,2.20
2023-02-11T06:00:49.022Z,2.20
2023-02-11T06:03:15.779Z,2.23
2023-02-11T06:05:43.743Z,2.21
2023-02-11T06:08:10.650Z,2.18
2023-02-11T06:10:37.326Z,2.18
2023-02-11T06:13:04.366Z,2.21
2023-02-11T06:15:30.977Z,2.17
2023-02-11T06:17:57.589Z,2.13
2023-02-11T06:20:24.250Z,2.12
2023-02-11T06:22:50.888Z,2.11
2023-02-11T06:25:17.556Z,2.07
2023-02-11T06:27:44.376Z,2.05
2023-02-11T06:30:11.733Z,2.04
2023-02-11T06:32:46.114Z,2.06
2023-02-11T06:35:14.683Z,2.08
2023-02-11T06:37:42.388Z,2.09
2023-02-11T06:40:10.175Z,2.15
2023-02-11T06:42:39.355Z,2.19
2023-02-11T06:45:08.987Z,2.21
2023-02-11T06:47:35.859Z,2.26
2023-02-11T06:50:02.654Z,2.30
2023-02-11T06:52:30.731Z,2.32
2023-02-11T06:54:58.770Z,2.33
2023-02-11T06:57:26.880Z,2.33
2023-02-11T06:59:56.232Z,2.33
2023-02-11T07:02:24.372Z,2.35
2023-02-11T07:04:52.620Z,2.38
2023-02-11T07:07:20.902Z,2.42
2023-02-11T07:09:49.013Z,2.47
2023-02-11T07:12:17.885Z,2.48
2023-02-11T07:14:48.554Z,2.51
2023-02-11T07:17:16.616Z,2.53
2023-02-11T07:19:44.773Z,2.53
2023-02-11T07:22:12.381Z,2.50
2023-02-11T07:24:40.848Z,2.53
2023-02-11T07:27:09.100Z,2.53
2023-02-11T07:29:36.825Z,2.54
2023-02-11T07:32:05.238Z,2.52
2023-02-11T07:34:33.644Z,2.51
2023-02-11T07:37:01.989Z,2.49
2023-02-11T07:39:30.208Z,2.44
2023-02-11T07:41:58.703Z,2.42
2023-02-11T07:44:28.142Z,2.40
2023-02-11T07:46:56.221Z,2.40
2023-02-11T07:49:24.444Z,2.41
2023-02-11T07:51:52.536Z,2.43
2023-02-11T07:54:20.411Z,2.42
2023-02-11T07:56:48.454Z,2.35
2023-02-11T07:59:16.913Z,2.35
2023-02-11T08:01:45.330Z,2.33
2023-02-11T08:04:13.558Z,2.32
2023-02-11T08:06:43.983Z,2.33
2023-02-11T08:09:17.448Z,2.38
2023-02-11T08:11:46.364Z,2.38
2023-02-11T08:14:14.022Z,2.40
2023-02-11T08:16:42.625Z,2.39
2023-02-11T08:19:16.430Z,2.40
2023-02-11T08:21:45.242Z,2.41
2023-02-11T08:24:15.417Z,2.44
2023-02-11T08:26:44.973Z,2.49
2023-02-11T08:29:15.811Z,2.56
2023-02-11T08:31:46.711Z,2.62
2023-02-11T08:34:14.467Z,2.60
2023-02-11T08:36:42.452Z,2.63
2023-02-11T08:39:21.271Z,2.69
2023-02-11T08:41:53.502Z,2.75
2023-02-11T08:44:21.326Z,2.79
2023-02-11T08:46:48.386Z,2.82
2023-02-11T08:49:16.292Z,2.91
2023-02-11T08:51:43.452Z,2.94
2023-02-11T08:54:10.729Z,2.98
2023-02-11T08:56:38.372Z,3.04
2023-02-11T08:59:05.530Z,3.04
2023-02-11T09:01:33.024Z,3.07
2023-02-11T09:03:59.732Z,3.14
2023-02-11T09:06:27.586Z,3.19
2023-02-11T09:08:55.969Z,3.23
2023-02-11T09:11:30.045Z,3.29
2023-02-11T09:13:56.895Z,3.32
2023-02-11T09:16:26.542Z,3.34
2023-02-11T09:18:55.818Z,3.34
2023-02-11T09:21:22.817Z,3.40
2023-02-11T09:23:49.843Z,3.39
2023-02-11T09:26:25.696Z,3.39
2023-02-11T09:28:52.868Z,3.39
2023-02-11T09:31:22.420Z,3.32
2023-02-11T09:33:51.613Z,3.32
2023-02-11T09:36:21.158Z,3.30
2023-02-11T09:38:48.786Z,3.35
2023-02-11T09:41:24.492Z,3.34
2023-02-11T09:43:54.194Z,3.33
2023-02-11T09:46:21.912Z,3.37
2023-02-11T09:48:52.962Z,3.42
2023-02-11T09:51:28.639Z,3.44
2023-02-11T09:54:02.140Z,3.40
2023-02-11T09:56:31.159Z,3.36
2023-02-11T09:58:57.975Z,3.37
2023-02-11T10:01:53.612Z,3.34
2023-02-11T10:04:49.442Z,3.37
2023-02-11T10:07:30.498Z,3.40
2023-02-11T10:10:21.353Z,3.46
2023-02-11T10:12:53.549Z,3.53
2023-02-11T10:15:41.729Z,3.55
2023-02-11T10:18:26.992Z,3.55
2023-02-11T10:21:24.219Z,3.57
2023-02-11T10:23:54.710Z,3.60
2023-02-11T10:26:21.796Z,3.62
2023-02-11T10:28:53.508Z,3.60
2023-02-11T10:31:34.086Z,3.69
2023-02-11T10:34:05.287Z,3.74
2023-02-11T10:36:38.873Z,3.83
2023-02-11T10:39:17.394Z,3.96
2023-02-11T10:41:49.236Z,4.02
2023-02-11T10:44:24.933Z,4.06
2023-02-11T10:46:52.180Z,4.07
2023-02-11T10:49:45.476Z,4.08
2023-02-11T10:52:21.247Z,4.10
2023-02-11T10:55:01.510Z,4.10
2023-02-11T10:57:34.210Z,4.07
2023-02-11T11:00:22.857Z,4.04
2023-02-11T11:02:56.088Z,4.06
2023-02-11T11:05:33.133Z,4.12
2023-02-11T11:08:10.473Z,4.13
2023-02-11T11:10:44.506Z,4.11
2023-02-11T11:13:24.414Z,4.14
2023-02-11T11:16:29.857Z,4.14
2023-02-11T11:19:08.695Z,4.13
2023-02-11T11:21:46.891Z,4.11
2023-02-11T11:24:29.452Z,4.12
2023-02-11T11:26:59.653Z,4.10
2023-02-11T11:29:35.640Z,4.12
2023-02-11T11:32:16.901Z,4.12
2023-02-11T11:34:57.147Z,4.10
2023-02-11T11:37:28.914Z,4.08
2023-02-11T11:40:16.970Z,4.15
2023-02-11T11:42:43.966Z,4.18
2023-02-11T11:45:19.564Z,4.15
2023-02-11T11:48:18.489Z,4.18
2023-02-11T11:50:47.154Z,4.20
2023-02-11T11:53:40.237Z,4.21
2023-02-11T11:56:14.106Z,4.19
2023-02-11T11:58:40.918Z,4.19
2023-02-11T12:01:20.916Z,4.17
2023-02-11T12:04:25.153Z,4.14
2023-02-11T12:07:22.820Z,4.17
2023-02-11T12:10:08.154Z,4.19
2023-02-11T12:12:47.022Z,4.16
2023-02-11T12:15:39.203Z,4.14
2023-02-11T12:18:05.716Z,4.14
2023-02-11T12:21:11.019Z,4.14
2023-02-11T12:24:15.697Z,4.12
2023-02-11T12:27:01.020Z,4.12
2023-02-11T12:29:46.373Z,4.12
2023-02-11T12:32:31.976Z,4.14
2023-02-11T12:35:11.215Z,4.12
2023-02-11T12:37:57.916Z,4.12
2023-02-11T12:40:50.800Z,4.12
2023-02-11T12:43:24.851Z,4.19
2023-02-11T12:46:11.846Z,4.19
2023-02-11T12:48:44.547Z,4.16
2023-02-11T12:51:49.668Z,4.15
2023-02-11T12:54:45.369Z,4.18
2023-02-11T12:57:32.200Z,4.16
2023-02-11T13:00:00.343Z,4.14
2023-02-11T13:03:04.077Z,4.13
2023-02-11T13:05:49.653Z,4.16
2023-02-11T13:08:18.877Z,4.22
2023-02-11T13:11:17.712Z,4.18
2023-02-11T13:13:55.411Z,4.20
2023-02-11T13:16:48.836Z,4.21
2023-02-11T13:19:30.823Z,4.20
2023-02-11T13:22:07.596Z,4.18
2023-02-11T13:25:15.770Z,4.22
2023-02-11T13:28:00.574Z,4.26
2023-02-11T13:30:35.369Z,4.22
2023-02-11T13:33:04.869Z,4.24
2023-02-11T13:35:34.102Z,4.22
2023-02-11T13:38:03.661Z,4.21
2023-02-11T13:40:34.309Z,4.23
2023-02-11T13:43:02.235Z,4.23
2023-02-11T13:45:45.862Z,4.22
2023-02-11T13:48:25.847Z,4.23
2023-02-11T13:50:56.572Z,4.26
2023-02-11T13:53:23.672Z,4.26
2023-02-11T13:56:03.872Z,4.25
2023-02-11T13:58:30.433Z,4.24
2023-02-11T14:00:58.462Z,4.27
2023-02-11T14:03:51.159Z,4.28
2023-02-11T14:06:39.894Z,4.28
2023-02-11T14:09:39.947Z,4.32
2023-02-11T14:12:33.099Z,4.33
2023-02-11T14:15:04.795Z,4.35
2023-02-11T14:17:34.769Z,4.37
2023-02-11T14:20:04.649Z,4.42
2023-02-11T14:22:47.609Z,4.43
2023-02-11T14:25:25.400Z,4.47
2023-02-11T14:28:08.009Z,4.47
2023-02-11T14:30:40.448Z,4.48
2023-02-11T14:33:16.153Z,4.49
2023-02-11T14:36:06.804Z,4.46
2023-02-11T14:38:42.577Z,4.44
2023-02-11T14:41:23.564Z,4.45
2023-02-11T14:43:55.323Z,4.46
2023-02-11T14:46:23.534Z,4.45
2023-02-11T14:48:53.764Z,4.44
2023-02-11T14:51:31.359Z,4.48
2023-02-11T14:54:03.447Z,4.48
2023-02-11T14:56:32.076Z,4.48
2023-02-11T14:58:58.853Z,4.46
2023-02-11T15:01:34.032Z,4.44
2023-02-11T15:04:06.117Z,4.39
2023-02-11T15:06:34.242Z,4.37
2023-02-11T15:09:05.085Z,4.38
2023-02-11T15:11:37.967Z,4.40
2023-02-11T15:14:34.984Z,4.41
2023-02-11T15:17:06.200Z,4.39
2023-02-11T15:19:42.090Z,4.41
2023-02-11T15:22:20.027Z,4.41
2023-02-11T15:24:58.508Z,4.41
2023-02-11T15:27:25.808Z,4.41
2023-02-11T15:29:52.890Z,4.41
2023-02-11T15:32:25.091Z,4.39
2023-02-11T15:34:53.886Z,4.40
2023-02-11T15:37:26.494Z,4.42
2023-02-11T15:39:54.941Z,4.44
2023-02-11T15:42:26.109Z,4.42
2023-02-11T15:45:29.168Z,4.41
2023-02-11T15:48:21.504Z,4.37
2023-02-11T15:50:54.708Z,4.36
2023-02-11T15:53:29.606Z,4.38
2023-02-11T15:56:32.998Z,4.32
2023-02-11T15:59:09.022Z,4.27
2023-02-11T16:01:38.105Z,4.26
2023-02-11T16:04:05.667Z,4.30
2023-02-11T16:06:39.879Z,4.34
2023-02-11T16:09:26.739Z,4.36
2023-02-11T16:11:56.580Z,4.37
2023-02-11T16:14:32.994Z,4.40
2023-02-11T16:17:04.770Z,4.45
2023-02-11T16:19:33.854Z,4.44
2023-02-11T16:22:07.764Z,4.45
2023-02-11T16:24:36.429Z,4.47
2023-02-11T16:27:06.705Z,4.46
2023-02-11T16:29:36.684Z,4.43
2023-02-11T16:32:09.970Z,4.38
2023-02-11T16:34:37.394Z,4.35
2023-02-11T16:37:05.536Z,4.28
2023-02-11T16:39:32.202Z,4.24
2023-02-11T16:41:59.302Z,4.20
2023-02-11T16:44:26.374Z,4.15
2023-02-11T16:46:53.259Z,4.13
2023-02-11T16:49:24.712Z,4.07
2023-02-11T16:51:56.534Z,4.02
2023-02-11T16:54:24.062Z,3.95
2023-02-11T16:56:50.671Z,3.87
2023-02-11T16:59:17.244Z,3.85
2023-02-11T17:01:45.450Z,3.82
2023-02-11T17:04:27.597Z,3.83
2023-02-11T17:06:55.989Z,3.81
2023-02-11T17:09:30.350Z,3.78
2023-02-11T17:11:57.631Z,3.72
2023-02-11T17:14:24.388Z,3.73
2023-02-11T17:16:51.071Z,3.74
2023-02-11T17:19:19.678Z,3.70
2023-02-11T17:21:48.790Z,3.67
2023-02-11T17:24:15.966Z,3.66
2023-02-11T17:26:43.725Z,3.64
2023-02-11T17:29:12.786Z,3.66
2023-02-11T17:31:40.543Z,3.67
2023-02-11T17:34:07.963Z,3.70
2023-02-11T17:36:34.956Z,3.70
2023-02-11T17:39:01.755Z,3.70
2023-02-11T17:41:28.777Z,3.68
2023-02-11T17:43:58.422Z,3.66
2023-02-11T17:46:25.215Z,3.65
2023-02-11T17:48:53.208Z,3.67
2023-02-11T17:51:34.075Z,3.66
2023-02-11T17:54:03.339Z,3.68
2023-02-11T17:56:33.299Z,3.65
2023-02-11T17:59:02.307Z,3.62
2023-02-11T18:01:31.032Z,3.60
2023-02-11T18:03:57.852Z,3.59
2023-02-11T18:06:24.844Z,3.57
2023-02-11T18:08:52.156Z,3.56
2023-02-11T18:11:19.085Z,3.57
2023-02-11T18:13:45.801Z,3.58
2023-02-11T18:16:15.653Z,3.62
2023-02-11T18:18:43.633Z,3.60
2023-02-11T18:21:15.392Z,3.58
2023-02-11T18:23:42.170Z,3.59
2023-02-11T18:26:10.567Z,3.57
2023-02-11T18:28:38.298Z,3.58
2023-02-11T18:31:05.860Z,3.57
2023-02-11T18:33:33.073Z,3.58
2023-02-11T18:35:59.841Z,3.65
2023-02-11T18:38:26.563Z,3.63
2023-02-11T18:40:56.675Z,3.62
2023-02-11T18:43:23.342Z,3.61
2023-02-11T18:45:50.986Z,3.61
2023-02-11T18:48:18.540Z,3.60
2023-02-11T18:50:46.315Z,3.61
2023-02-11T18:53:14.032Z,3.62
2023-02-11T18:55:42.941Z,3.61
2023-02-11T18:58:09.770Z,3.60
2023-02-11T19:00:45.592Z,3.62
2023-02-11T19:03:12.211Z,3.65
2023-02-11T19:05:47.165Z,3.67
2023-02-11T19:08:14.300Z,3.66
2023-02-11T19:10:47.147Z,3.66
2023-02-11T19:13:14.777Z,3.66
2023-02-11T19:15:42.583Z,3.65
2023-02-11T19:18:09.422Z,3.67
2023-02-11T19:20:39.318Z,3.69
2023-02-11T19:23:05.867Z,3.72
2023-02-11T19:25:32.928Z,3.73
2023-02-11T19:28:00.309Z,3.78
2023-02-11T19:30:27.461Z,3.79
2023-02-11T19:32:57.052Z,3.79
2023-02-11T19:35:24.778Z,3.78
2023-02-11T19:37:51.377Z,3.80
2023-02-11T19:40:18.190Z,3.80
2023-02-11T19:42:44.849Z,3.80
2023-02-11T19:45:11.465Z,3.81
2023-02-11T19:47:38.562Z,3.87
2023-02-11T19:50:06.057Z,3.87
2023-02-11T19:52:32.908Z,3.87
2023-02-11T19:55:00.413Z,3.87
2023-02-11T19:57:27.333Z,3.88
2023-02-11T19:59:55.045Z,3.87
2023-02-11T20:02:21.678Z,3.90
2023-02-11T20:04:48.395Z,3.90
2023-02-11T20:07:14.998Z,3.90
2023-02-11T20:09:42.548Z,3.91
2023-02-11T20:12:10.034Z,3.92
2023-02-11T20:14:36.814Z,3.96
2023-02-11T20:17:03.655Z,3.97
2023-02-11T20:19:30.679Z,3.95
2023-02-11T20:21:57.471Z,3.96
2023-02-11T20:24:25.454Z,3.93
2023-02-11T20:26:55.623Z,3.95
2023-02-11T20:29:23.401Z,3.95
2023-02-11T20:31:50.502Z,3.97
2023-02-11T20:34:17.641Z,3.98
2023-02-11T20:36:51.350Z,3.98
2023-02-11T20:39:18.643Z,3.96
2023-02-11T20:41:46.137Z,3.98
2023-02-11T20:44:13.817Z,4.00
2023-02-11T20:46:43.867Z,4.00
2023-02-11T20:49:12.922Z,3.99
2023-02-11T20:51:39.863Z,3.94
2023-02-11T20:54:07.506Z,3.92
2023-02-11T20:56:36.779Z,3.93
2023-02-11T20:59:04.292Z,3.92
2023-02-11T21:01:37.058Z,3.94
2023-02-11T21:04:07.023Z,3.91
2023-02-11T21:06:37.776Z,3.91
2023-02-11T21:09:06.961Z,3.89
2023-02-11T21:11:33.736Z,3.88
2023-02-11T21:14:00.871Z,3.89
2023-02-11T21:16:27.826Z,3.91
2023-02-11T21:18:55.374Z,3.93
2023-02-11T21:21:22.482Z,3.93
2023-02-11T21:23:49.040Z,3.92
2023-02-11T21:26:16.889Z,3.93
2023-02-11T21:28:44.210Z,3.97
2023-02-11T21:31:22.645Z,3.99
2023-02-11T21:33:50.576Z,4.06
2023-02-11T21:36:17.741Z,4.07
2023-02-11T21:38:44.593Z,4.06
2023-02-11T21:41:12.101Z,4.05
2023-02-11T21:43:38.850Z,4.08
2023-02-11T21:46:11.709Z,4.06
2023-02-11T21:48:38.757Z,4.06
2023-02-11T21:51:07.730Z,4.06
2023-02-11T21:53:34.854Z,4.06
2023-02-11T21:56:10.284Z,4.07
2023-02-11T21:58:37.058Z,4.07
2023-02-11T22:01:25.416Z,4.07
2023-02-11T22:03:52.096Z,4.07
2023-02-11T22:06:21.669Z,4.05
2023-02-11T22:08:52.241Z,4.04
2023-02-11T22:11:19.916Z,4.02
2023-02-11T22:13:46.962Z,3.99
2023-02-11T22:16:16.614Z,4.01
2023-02-11T22:18:46.624Z,4.01
2023-02-11T22:21:16.282Z,4.00
2023-02-11T22:23:42.895Z,4.04
2023-02-11T22:26:22.041Z,4.05
2023-02-11T22:28:49.791Z,4.06
2023-02-11T22:31:19.758Z,4.04
2023-02-11T22:33:46.757Z,4.04
2023-02-11T22:36:16.852Z,4.08
2023-02-11T22:38:43.630Z,4.06
2023-02-11T22:41:11.253Z,4.12
2023-02-11T22:43:38.539Z,4.11
2023-02-11T22:46:07.219Z,4.10
2023-02-11T22:48:35.266Z,4.07
2023-02-11T22:51:10.688Z,4.09
2023-02-11T22:53:37.391Z,4.08
2023-02-11T22:56:07.051Z,4.08
2023-02-11T22:58:34.380Z,4.09
2023-02-11T23:01:01.052Z,4.11
2023-02-11T23:03:28.202Z,4.09
2023-02-11T23:05:55.307Z,4.09
2023-02-11T23:08:22.051Z,4.09
2023-02-11T23:10:49.295Z,4.07
2023-02-11T23:13:16.078Z,4.07
2023-02-11T23:15:44.188Z,4.06
2023-02-11T23:18:11.858Z,4.06
2023-02-11T23:20:40.601Z,4.06
2023-02-11T23:23:07.544Z,4.06
2023-02-11T23:25:34.483Z,4.07
2023-02-11T23:28:01.667Z,4.06
2023-02-11T23:30:28.684Z,4.06
2023-02-11T23:32:55.346Z,4.07
2023-02-11T23:35:23.087Z,4.07
2023-02-11T23:37:51.157Z,4.07
2023-02-11T23:40:18.593Z,4.05
2023-02-11T23:42:45.723Z,4.06
2023-02-11T23:45:12.526Z,4.05
2023-02-11T23:47:39.724Z,4.07
2023-02-11T23:50:08.358Z,4.05
2023-02-11T23:52:35.438Z,4.04
2023-02-11T23:55:02.048Z,4.01
2023-02-11T23:57:28.741Z,4.03
2023-02-11T23:59:55.308Z,4.04
